AirNav   Phillips 66 Aviation Fuel
 
 1430 users online  

35MN Wipline Airport
Inver Grove Heights, Minnesota, USA

GOING TO INVER GROVE HEIGHTS?


FAA INFORMATION EFFECTIVE 24 MAY 2018

Location

FAA Identifier: 35MN
Lat/Long: 44-48-55.8790N / 093-00-48.7690W
44-48.931317N / 093-00.812817W
44.8155219 / -93.0135469
(estimated)
Elevation: 687 ft. / 209 m (estimated)
Variation: 03E (1985)
From city: 2 miles SE of INVER GROVE HEIGHTS, MN
Time zone: UTC -5 (UTC -6 during Standard Time)
Zip code: 55077

Airport Operations

Airport use: Private use. Permission required prior to landing
Activation date: 02/1978
Control tower: no
ARTCC: MINNEAPOLIS CENTER
FSS: PRINCETON FLIGHT SERVICE STATION
Attendance: UNATNDD
Wind indicator: yes
Segmented circle: no

Airport Communications

WX AWOS-3 at SGS (2.6 nm N): 119.425 (651-457-8120)
WX ASOS at STP (7 nm N): PHONE 651-298-1410
WX ASOS at MSP (10 nm NW): PHONE 612-713-4174
WX AWOS-3 at 21D (13 nm NE): 120.075 (651-779-5949)
WX AWOS-3 at LVN (15 nm SW): 118.0 (952-469-5850)
WX ASOS at FCM (19 nm W): PHONE 952-941-4156

Nearby radio navigation aids

VOR radial/distance  VOR name  Freq  Var
MSPr115/10.7MINNEAPOLIS VOR/DME115.3002E
FGTr027/13.2FARMINGTON VORTAC115.7006E
FCMr091/18.3FLYING CLOUD VOR/DME117.7001E
GEPr136/25.0GOPHER VORTAC117.3006E
FOWr021/39.7HALFWAY VOR/DME111.2002E

 
NDB name  Hdg/Dist  Freq  Var  ID
HOPEY218/4.640003EPPI .--. .--. ..

Airport Services

Runway Information

Runway 3/21

Dimensions: 2300 x 150 ft. / 701 x 46 m
Surface: turf
RUNWAY 3  RUNWAY 21
Traffic pattern: leftleft

Airport Ownership and Management from official FAA records

Ownership: Privately-owned
Owner: ROBERT WIPLINGER
9100 RIVER ROAD
INVER GROVE HTS, MN 55075
Phone 612-451-1205
Manager: ROBERT WIPLINGER
9100 RIVER ROAD
INVER GROVE HTS, MN 55075
Phone 612-451-1205
CELL: 612-867-6160

Airport Operational Statistics

Aircraft based on the field: 5
Single engine airplanes: 5
    

Instrument Procedures

There are no published instrument procedures at 35MN.

Some nearby airports with instrument procedures:

KSGS - South St Paul Municipal Airport-Richard E Fleming Field (3 nm N)
KSTP - St. Paul Downtown Airport / Holman Field (7 nm N)
KMSP - Minneapolis-St Paul International/Wold-Chamberlain Airport (10 nm NW)
21D - Lake Elmo Airport (13 nm NE)
KLVN - Airlake Airport (15 nm SW)
KFCM - Flying Cloud Airport (19 nm W)
 
Loc | Ops | Rwys | IFR | FBO | Links
Com | Nav | Svcs | Stats | Notes

AirNav Hotels Sweepstakes
 
Area around 35MN (Wipline Airport)
 
Road maps at: MapQuest Bing Google
 
Aerial photo
No photo
 
Sectional chart

 
Airport distance calculator
Flying to Wipline Airport? Find the distance to fly.

From to 35MN

Sunrise and sunset
Times for 25-May-2018
 Local
(UTC-5)
 Zulu
(UTC)
Morning civil twilight04:5909:59
Sunrise05:3510:35
Sunset20:4301:43
Evening civil twilight21:1802:18

Current date and time
Zulu (UTC)  25-May-2018 17:23:52
Local (UTC-5)  25-May-2018 12:23:52
 
METAR
KSGS 
6nm W 
251655Z AUTO 20011G15KT 10SM CLR 26/19 A2978 RMK AO2 T02600193
KSTP 
7nm N 
251653Z 16012KT 10SM CLR 26/20 A2978 RMK AO2 SLP077 T02610200
KMSP 
10nm NW 
251653Z 21008KT 10SM FEW080 SCT250 27/20 A2978 RMK AO2 SLP079 T02670200
K21D 
13nm NE 
251655Z AUTO 20011KT 10SM CLR 25/20 A2980 RMK AO2
KLVN 
15nm SW 
251655Z AUTO 16007KT 10SM CLR 26/20 A2979 RMK AO2
KFCM 
19nm W 
251653Z 21008KT 10SM CLR 27/20 A2978 RMK AO2 SLP077 T02720200
TAF
KMSP 
10nm NW 
251500Z 2515/2618 20010KT P6SM BKN250 FM251800 25010G22KT P6SM SCT070 FM260100 28005KT P6SM FEW070 FM260700 25003KT P6SM SKC FM261600 25009KT P6SM SKC
NOTAMs
Click for the latest NOTAMs
NOTAMs are issued by the DoD/FAA and will open in a separate window not controlled by AirNav.

 

 
 

Would you like to see your business listed on this page?

 If your business provides an interesting product or service to pilots, flight crews, aircraft, or users of the Wipline Airport, you should consider listing it here.  To start the listing process, click on the button below
 
Add a business
 

Other Pages about Wipline Airport

Update a link
 
Copyright © AirNav, LLC. All rights reserved. Privacy Policy  Contact